Glandorf, OH (45848)

9:27 AM EDT on May 05, 2015 (GMT -0400)
Glandorf | | Change Station
CLOSE
Current Station
Personal Weather Station
Location: Ottawa, OH
Elevation: 722 ft
Nearby Weather Stations

Elev 722 ft 41.03 °N, 84.08 °W | Updated 60 seconds ago

Rain
Rain
60.8 °F
Feels Like 60.8 °F
N
1.7
Wind Variable Wind from ENE

Today
High -- | Low -- °F
--% Chance of Precip.
Yesterday
High -- | Low -- °F
Precip. -- in
6:29 AM 8:37 PM
Full, 98% visible
Pressure 30.25 in
Visibility 1.2 miles
Clouds Few 6000 ft
Overcast 8500 ft
Dew Point 60 °F
Humidity 97%
Rainfall 0.22 in
Snow Depth Not available.
UV 0 out of 12
Pollen 1.90 out of 12
Air Quality Not available.
Flu Activity Regional
SPECI KFDY 051205Z AUTO 22003KT 1 1/4SM +RA BR FEW060 OVC085 17/15 A3025 RMK AO2 P0004 T01670150

More Conditions Fewer Conditions

Pressure 30.25 in
Visibility 1.2 miles
Clouds Few 6000 ft
Overcast 8500 ft
Dew Point 60 °F
Humidity 97%
Rainfall 0.22 in
Snow Depth Not available.
UV 0 out of 12
Pollen 1.90 out of 12
Air Quality Not available.
Flu Activity Regional
SPECI KFDY 051205Z AUTO 22003KT 1 1/4SM +RA BR FEW060 OVC085 17/15 A3025 RMK AO2 P0004 T01670150

More Conditions Fewer Conditions

Nepal has a long way to go to dig out and rebuild from a devastating earthquake. We have teamed up with several charities and organizations to make contributing to the relief effort as easy as possible.
How you can help: Portlight Strategies | Red Cross

10-Day Weather Forecast

Almanac

Astronomy

May. 05, 2015 Rise Set
Actual Time
Civil Twilight
Nautical Twilight
Astronomical Twilight
Moon
Length of Visible Light
Length of Day
Tomorrow will be .
, % of the Moon is Illuminated

Today's Extremes

State Highs State Lows

Community

WunderPhotos

Upload Photos

1,818,880 photos uploaded!

WunderBlogs® & News

Nearby

Air Quality

  Air Quality AQ Index Pollutant
Not available.

Snow Depth

Station Depth Elevation

Earthquake Activity

City Distance Mag. Time & Date
Minimum magnitude displayed is 2.5.

Coastal Water Temperatures

Place Temperature

Stations

Nearby Weather Stations

Station Location Temp. Windchill Dew Point Humidity Wind Precip. Elev Updated Type